Time;durP1;ratioP1;P1;durP2;ratioP2;P2;SDS_P1;SDS_P2;PMS_P1;PMS_P2;Temp;Humidity;BMP_temperature;BMP_pressure;BME280_temperature;BME280_humidity;BME280_pressure;Samples;Min_cycle;Max_cycle;Signal;HPM_P1;HPM_P2
2023/02/17 00:01:56;;;;;;;5.72;2.95;;;;;;;17.51;51.63;101873.94;6226954;22;20001;-88
2023/02/17 00:04:22;;;;;;;5.90;3.15;;;;;;;17.51;51.99;101888.66;6226968;22;20027;-87
2023/02/17 00:06:47;;;;;;;7.15;2.97;;;;;;;17.51;51.69;101888.66;6226384;22;20053;-89
2023/02/17 00:09:13;;;;;;;6.00;2.95;;;;;;;17.51;51.69;101888.66;6226894;22;20079;-88
2023/02/17 00:11:38;;;;;;;7.97;3.00;;;;;;;17.50;51.68;101898.19;6252018;22;20015;-88
2023/02/17 00:14:04;;;;;;;6.30;3.00;;;;;;;17.50;51.82;101893.00;6226558;22;20011;-88
2023/02/17 00:16:29;;;;;;;5.90;2.83;;;;;;;17.50;51.75;101900.78;6251514;22;20114;-88
2023/02/17 00:18:57;;;;;;;8.25;3.28;;;;;;;17.49;51.88;101893.88;6226498;22;20471;-86
2023/02/17 00:21:25;;;;;;;7.90;3.22;;;;;;;17.48;51.70;101890.41;6251871;22;20031;-88
2023/02/17 00:23:52;;;;;;;8.15;3.03;;;;;;;17.49;52.00;101886.06;6251693;22;20460;-88
2023/02/17 00:26:19;;;;;;;4.80;2.50;;;;;;;17.49;51.87;101883.47;6226506;22;20000;-88
2023/02/17 00:28:45;;;;;;;11.55;3.30;;;;;;;17.48;51.72;101873.88;6252032;22;20057;-88
2023/02/17 00:31:17;;;;;;;5.50;3.10;;;;;;;17.48;51.84;101877.38;6252191;22;20007;-88
2023/02/17 00:33:42;;;;;;;6.75;3.00;;;;;;;17.49;51.87;101865.25;6251732;22;20065;-88
2023/02/17 00:36:11;;;;;;;6.43;3.30;;;;;;;17.47;51.80;101854.81;6226562;22;20011;-88
2023/02/17 00:38:37;;;;;;;5.20;2.85;;;;;;;17.48;51.82;101853.06;6251623;22;20003;-87
2023/02/17 00:41:03;;;;;;;6.32;2.70;;;;;;;17.47;51.61;101854.81;6226663;22;20010;-88
2023/02/17 00:43:28;;;;;;;6.13;3.10;;;;;;;17.47;51.64;101851.34;6227030;22;20010;-89
2023/02/17 00:45:54;;;;;;;5.05;2.85;;;;;;;17.47;51.92;101844.41;6194509;23;20047;-88
2023/02/17 00:48:20;;;;;;;7.93;3.05;;;;;;;17.48;51.74;101855.66;6221300;23;20074;-89
2023/02/17 00:50:45;;;;;;;6.60;3.30;;;;;;;17.47;51.76;101860.00;6196291;23;20008;-89
2023/02/17 00:53:10;;;;;;;5.10;2.58;;;;;;;17.47;51.50;101859.16;6221261;23;20003;-88
2023/02/17 00:55:36;;;;;;;5.30;2.70;;;;;;;17.47;51.74;101877.38;6221551;23;20004;-89
2023/02/17 00:58:01;;;;;;;6.15;2.88;;;;;;;17.47;51.65;101859.16;6172314;23;20024;-90
2023/02/17 01:00:27;;;;;;;5.22;2.85;;;;;;;17.47;51.46;101864.34;6221954;23;20383;-88
2023/02/17 01:02:52;;;;;;;5.47;2.63;;;;;;;17.46;51.52;101854.78;6221388;23;20000;-89
2023/02/17 01:05:18;;;;;;;6.03;2.88;;;;;;;17.45;51.76;101855.66;6196283;23;20008;-88
2023/02/17 01:07:43;;;;;;;5.20;2.95;;;;;;;17.46;51.55;101852.19;6196089;23;20425;-88
2023/02/17 01:10:09;;;;;;;6.70;3.03;;;;;;;17.45;51.78;101838.31;6196139;23;20337;-88
2023/02/17 01:12:34;;;;;;;6.05;2.97;;;;;;;17.44;51.61;101825.28;6221133;23;20015;-90
2023/02/17 01:15:00;;;;;;;4.95;2.58;;;;;;;17.43;51.64;101827.03;6196319;23;20194;-88
2023/02/17 01:17:26;;;;;;;6.15;2.78;;;;;;;17.45;51.65;101838.31;6221017;23;20091;-88
2023/02/17 01:19:51;;;;;;;5.45;2.80;;;;;;;17.44;51.60;101838.28;6221576;23;20004;-89
2023/02/17 01:22:17;;;;;;;5.82;2.70;;;;;;;17.44;51.49;101854.81;6171405;23;20012;-88
2023/02/17 01:24:42;;;;;;;5.03;2.67;;;;;;;17.45;51.60;101860.88;6172014;23;20091;-88
2023/02/17 01:27:07;;;;;;;4.75;2.60;;;;;;;17.44;51.60;101852.19;6222282;23;20071;-88
2023/02/17 01:29:33;;;;;;;3.70;2.38;;;;;;;17.45;51.47;101863.47;6173345;23;20015;-88
2023/02/17 01:31:58;;;;;;;6.25;2.90;;;;;;;17.43;51.58;101855.66;6198479;23;20347;-88
2023/02/17 01:34:24;;;;;;;4.75;2.75;;;;;;;17.43;51.43;101855.66;6198373;23;20004;-88
2023/02/17 01:36:49;;;;;;;4.45;2.55;;;;;;;17.44;51.73;101870.41;6252745;23;20011;-87
2023/02/17 01:39:15;;;;;;;5.85;3.00;;;;;;;17.44;51.28;101864.31;6213699;23;20000;-86
2023/02/17 01:41:42;;;;;;;5.10;2.78;;;;;;;17.42;51.65;101859.13;6248323;22;20034;-88
2023/02/17 01:44:17;;;;;;;4.80;2.63;;;;;;;17.43;51.51;101849.56;6246380;23;19989;-89
2023/02/17 01:46:48;;;;;;;4.45;2.55;;;;;;;17.43;51.62;101836.56;6253507;22;20015;-84
2023/02/17 01:49:29;;;;;;;4.05;2.38;;;;;;;17.43;51.57;101813.16;6255016;22;20084;-84
2023/02/17 01:52:01;;;;;;;5.53;2.72;;;;;;;17.42;51.51;101804.47;6254064;22;20007;-85
2023/02/17 01:54:33;;;;;;;4.63;2.28;;;;;;;17.41;51.40;101807.06;6280517;22;20030;-85
2023/02/17 01:57:00;;;;;;;3.73;2.43;;;;;;;17.41;51.60;101810.53;6252659;22;20030;-84
2023/02/17 01:59:28;;;;;;;4.75;2.60;;;;;;;17.41;51.52;101815.72;6253063;22;20451;-84
2023/02/17 02:01:57;;;;;;;4.32;2.30;;;;;;;17.42;51.45;101814.00;6227440;22;20424;-83
2023/02/17 02:04:26;;;;;;;3.00;2.20;;;;;;;17.41;51.58;101817.47;6280135;22;20064;-82
2023/02/17 02:06:51;;;;;;;5.15;2.35;;;;;;;17.42;51.68;101824.41;6252679;22;20004;-83
2023/02/17 02:09:21;;;;;;;5.18;2.60;;;;;;;17.41;51.51;101817.47;6253110;22;20054;-81
2023/02/17 02:11:50;;;;;;;3.50;2.10;;;;;;;17.39;51.53;101807.03;6252926;22;20006;-83
2023/02/17 02:14:18;;;;;;;4.13;2.35;;;;;;;17.40;51.62;101794.94;6228086;22;20011;-84
2023/02/17 02:17:05;;;;;;;4.65;2.45;;;;;;;17.40;51.57;101801.00;6252536;22;20008;-88
2023/02/17 02:20:12;;;;;;;4.57;2.17;;;;;;;17.40;51.69;101802.72;6253749;22;20000;-87
2023/02/17 02:23:16;;;;;;;4.00;2.45;;;;;;;17.39;51.64;101801.84;6240818;22;20023;-88
2023/02/17 02:26:11;;;;;;;5.05;2.45;;;;;;;17.40;51.47;101789.72;6252896;22;20103;-87
2023/02/17 02:29:16;;;;;;;4.10;2.10;;;;;;;17.40;51.43;101771.50;6219785;22;20012;-88
2023/02/17 02:32:00;;;;;;;4.15;2.28;;;;;;;17.40;51.39;101781.91;6279760;22;20000;-88
2023/02/17 02:34:35;;;;;;;5.80;2.33;;;;;;;17.40;51.60;101776.72;6279350;22;20007;-89
2023/02/17 02:37:11;;;;;;;3.85;2.10;;;;;;;17.38;51.93;101768.88;6252620;22;20006;-89
2023/02/17 02:39:40;;;;;;;5.47;2.17;;;;;;;17.39;51.73;101772.34;6252185;22;20011;-88
2023/02/17 02:42:12;;;;;;;3.50;2.05;;;;;;;17.37;51.41;101772.34;6252756;22;20003;-88
2023/02/17 02:44:37;;;;;;;3.50;1.75;;;;;;;17.39;51.56;101772.34;6252657;22;20034;-88
2023/02/17 02:47:06;;;;;;;3.15;1.85;;;;;;;17.38;51.41;101766.28;6201510;22;20019;-88
2023/02/17 02:49:35;;;;;;;4.10;2.20;;;;;;;17.37;51.50;101761.94;6252624;22;20043;-88
2023/02/17 02:52:06;;;;;;;4.50;2.28;;;;;;;17.38;51.27;101762.81;6252941;22;20000;-89
2023/02/17 02:55:00;;;;;;;3.80;2.20;;;;;;;17.37;51.50;101751.53;6252541;22;20008;-89
2023/02/17 02:57:28;;;;;;;4.10;2.15;;;;;;;17.37;51.29;101756.72;6252281;22;20497;-89
2023/02/17 03:00:09;;;;;;;3.38;2.17;;;;;;;17.37;51.45;101741.09;6252900;22;20006;-89
2023/02/17 03:02:51;;;;;;;3.72;2.10;;;;;;;17.36;51.41;101744.59;6252576;22;20007;-89
2023/02/17 03:05:25;;;;;;;3.53;2.00;;;;;;;17.37;51.40;101730.72;6279512;22;20082;-89
2023/02/17 03:08:07;;;;;;;3.45;2.10;;;;;;;17.36;51.39;101734.19;6252600;22;20003;-89
2023/02/17 03:10:33;;;;;;;3.28;2.00;;;;;;;17.36;51.26;101741.13;6253664;22;20310;-88
2023/02/17 03:13:01;;;;;;;3.70;1.95;;;;;;;17.35;51.16;101748.03;6227258;22;20014;-88
2023/02/17 03:15:30;;;;;;;4.13;2.30;;;;;;;17.36;51.33;101735.91;6252737;22;20004;-87
2023/02/17 03:17:57;;;;;;;3.13;1.92;;;;;;;17.36;51.42;101735.91;6252437;22;20424;-88
2023/02/17 03:20:23;;;;;;;3.60;1.80;;;;;;;17.35;51.57;101735.03;6252912;22;20004;-89
2023/02/17 03:22:49;;;;;;;3.33;1.92;;;;;;;17.35;51.30;101734.16;6252461;22;20004;-88
2023/02/17 03:25:15;;;;;;;2.80;1.80;;;;;;;17.35;51.48;101729.81;6252799;22;20061;-88
2023/02/17 03:27:41;;;;;;;3.22;1.92;;;;;;;17.34;51.73;101724.63;6227064;22;20004;-89
2023/02/17 03:30:08;;;;;;;3.90;1.88;;;;;;;17.34;51.45;101728.09;6279724;22;20011;-89
2023/02/17 03:32:34;;;;;;;2.92;1.92;;;;;;;17.34;51.34;101724.63;6227980;22;20012;-88
2023/02/17 03:34:59;;;;;;;3.70;1.80;;;;;;;17.34;51.37;101729.84;6227296;22;20125;-88
2023/02/17 03:37:25;;;;;;;4.20;1.88;;;;;;;17.34;51.41;101730.69;6227236;22;20405;-88
2023/02/17 03:39:50;;;;;;;3.72;1.80;;;;;;;17.34;51.36;101743.72;6203082;22;20019;-86
2023/02/17 03:42:15;;;;;;;4.15;2.17;;;;;;;17.34;51.37;101740.25;6253167;22;20086;-88
2023/02/17 03:44:41;;;;;;;3.38;1.80;;;;;;;17.34;51.41;101738.50;6227464;22;20004;-88
2023/02/17 03:47:06;;;;;;;3.75;2.10;;;;;;;17.33;51.33;101743.69;6227634;22;20012;-88
2023/02/17 03:49:32;;;;;;;3.67;2.08;;;;;;;17.33;51.29;101735.88;6253227;22;20034;-88
2023/02/17 03:51:58;;;;;;;5.03;2.50;;;;;;;17.34;51.29;101727.25;6202813;22;20082;-88
2023/02/17 03:54:24;;;;;;;3.35;1.88;;;;;;;17.33;51.33;101722.88;6228701;22;20458;-88
2023/02/17 03:56:49;;;;;;;3.88;2.10;;;;;;;17.33;51.30;101736.75;6253229;22;20035;-82
2023/02/17 03:59:15;;;;;;;3.22;1.75;;;;;;;17.33;51.38;101733.28;6226929;22;20011;-81
2023/02/17 04:01:40;;;;;;;3.42;2.03;;;;;;;17.33;51.33;101733.28;6234082;22;20026;-82
2023/02/17 04:04:06;;;;;;;4.25;2.13;;;;;;;17.33;51.42;101734.16;6284431;22;20003;-84
2023/02/17 04:06:31;;;;;;;3.33;2.03;;;;;;;17.32;51.46;101727.22;6234762;22;20003;-84
2023/02/17 04:08:56;;;;;;;4.05;2.22;;;;;;;17.32;51.23;101721.16;6258066;22;20004;-85
2023/02/17 04:11:22;;;;;;;2.63;1.90;;;;;;;17.32;51.36;101702.94;6237127;22;20016;-85
2023/02/17 04:13:47;;;;;;;3.35;2.08;;;;;;;17.31;51.20;101702.09;6262127;22;20008;-83
2023/02/17 04:16:12;;;;;;;4.45;2.00;;;;;;;17.31;51.50;101709.88;6212097;22;20304;-85
2023/02/17 04:18:38;;;;;;;3.83;2.10;;;;;;;17.31;51.36;101717.69;6220322;22;20000;-84
2023/02/17 04:21:04;;;;;;;3.08;1.83;;;;;;;17.30;51.34;101713.31;6213052;22;20054;-86
2023/02/17 04:23:30;;;;;;;2.95;1.75;;;;;;;17.31;51.23;101698.59;6264767;22;20038;-84
2023/02/17 04:25:55;;;;;;;3.78;2.10;;;;;;;17.31;51.37;101702.09;6236549;22;20007;-85
2023/02/17 04:28:21;;;;;;;4.43;2.05;;;;;;;17.30;51.34;101700.31;6229784;22;20008;-85
2023/02/17 04:30:49;;;;;;;2.75;1.52;;;;;;;17.29;51.41;101688.19;6256065;22;20286;-85
2023/02/17 04:33:15;;;;;;;3.72;1.77;;;;;;;17.31;51.40;101695.97;6215743;22;20012;-84
2023/02/17 04:35:41;;;;;;;3.80;1.80;;;;;;;17.30;51.52;101689.06;6231430;22;20103;-85
2023/02/17 04:38:07;;;;;;;4.30;2.08;;;;;;;17.28;51.46;101697.69;6229086;22;20428;-84
2023/02/17 04:40:33;;;;;;;3.55;1.90;;;;;;;17.29;51.88;101701.19;6252645;22;20396;-83
2023/02/17 04:42:58;;;;;;;3.72;1.67;;;;;;;17.30;51.57;101715.06;6253801;22;20094;-84
2023/02/17 04:45:24;;;;;;;4.32;1.77;;;;;;;17.29;51.55;101719.41;6229362;22;20004;-84
2023/02/17 04:47:50;;;;;;;3.05;1.60;;;;;;;17.28;51.29;101718.50;6202734;22;20045;-84
2023/02/17 04:50:16;;;;;;;3.58;1.50;;;;;;;17.30;51.54;101723.72;6253221;22;20094;-84
2023/02/17 04:52:41;;;;;;;4.45;1.50;;;;;;;17.28;51.48;101733.25;6227046;22;20313;-85
2023/02/17 04:55:07;;;;;;;2.95;1.50;;;;;;;17.30;51.54;101720.28;6254103;22;20004;-85
2023/02/17 04:57:33;;;;;;;3.63;1.70;;;;;;;17.30;51.22;101721.13;6227897;22;20004;-85
2023/02/17 04:59:59;;;;;;;4.50;1.63;;;;;;;17.30;51.83;101708.13;6227377;22;20011;-84
2023/02/17 05:02:25;;;;;;;2.88;1.50;;;;;;;17.30;51.43;101702.94;6251095;22;19999;-85
2023/02/17 05:04:52;;;;;;;3.42;1.63;;;;;;;17.31;51.62;101698.59;6251285;22;20004;-83
2023/02/17 05:07:17;;;;;;;2.88;1.55;;;;;;;17.31;51.56;101688.19;6200349;22;20098;-83
2023/02/17 05:09:43;;;;;;;4.25;2.03;;;;;;;17.32;51.61;101696.00;6225117;22;20501;-83
2023/02/17 05:12:08;;;;;;;4.43;1.90;;;;;;;17.31;51.63;101683.88;6225330;22;20313;-86
2023/02/17 05:14:33;;;;;;;3.15;1.35;;;;;;;17.31;51.48;101677.78;6200061;22;20035;-84
2023/02/17 05:16:59;;;;;;;4.70;1.80;;;;;;;17.32;51.69;101676.94;6250809;22;20014;-84
2023/02/17 05:19:24;;;;;;;4.40;1.63;;;;;;;17.33;51.84;101681.25;6200177;22;20462;-84
2023/02/17 05:21:50;;;;;;;4.97;1.85;;;;;;;17.32;51.61;101676.94;6224895;22;20094;-84
2023/02/17 05:24:16;;;;;;;3.88;1.75;;;;;;;17.32;51.86;101672.59;6225248;22;20003;-84
2023/02/17 05:26:41;;;;;;;3.95;1.65;;;;;;;17.32;51.88;101662.19;6251033;22;20428;-88
2023/02/17 05:29:07;;;;;;;4.55;1.60;;;;;;;17.32;51.70;101667.38;6225785;22;20431;-88
2023/02/17 05:31:32;;;;;;;6.80;1.73;;;;;;;17.32;51.73;101664.78;6226392;22;20004;-87
2023/02/17 05:33:57;;;;;;;2.67;1.45;;;;;;;17.33;51.71;101673.44;6251538;22;20008;-86
2023/02/17 05:36:23;;;;;;;5.43;1.70;;;;;;;17.34;51.91;101672.59;6201090;22;20041;-88
2023/02/17 05:38:50;;;;;;;3.55;1.80;;;;;;;17.33;52.06;101663.91;6226017;22;20027;-88
2023/02/17 05:41:16;;;;;;;4.25;1.70;;;;;;;17.37;51.92;101657.84;6225437;22;20309;-85
2023/02/17 05:43:41;;;;;;;3.72;1.77;;;;;;;17.37;51.79;101663.06;6250920;22;20008;-83
2023/02/17 05:46:07;;;;;;;4.45;1.80;;;;;;;17.37;51.70;101664.78;6225182;22;20018;-85
2023/02/17 05:48:32;;;;;;;3.53;1.42;;;;;;;17.35;51.87;101659.56;6225131;22;20313;-85
2023/02/17 05:50:58;;;;;;;3.70;1.60;;;;;;;17.35;51.84;101661.31;6250812;22;20369;-86
2023/02/17 05:53:24;;;;;;;3.17;1.48;;;;;;;17.34;51.80;101676.06;6224932;22;20012;-85
2023/02/17 05:55:49;;;;;;;5.55;1.60;;;;;;;17.34;51.95;101659.59;6225582;22;20325;-87
2023/02/17 05:58:14;;;;;;;4.80;1.60;;;;;;;17.34;52.08;101657.84;6227593;22;20417;-91
2023/02/17 06:00:40;;;;;;;6.32;1.88;;;;;;;17.33;51.82;101656.09;6251856;22;20004;-87
2023/02/17 06:03:05;;;;;;;3.13;1.48;;;;;;;17.34;52.25;101654.41;6252365;22;20015;-89
2023/02/17 06:05:31;;;;;;;2.97;1.70;;;;;;;17.34;51.96;101654.41;6277801;22;20320;-84
2023/02/17 06:07:56;;;;;;;4.82;1.88;;;;;;;17.35;52.17;101645.72;6278594;22;20079;-88
2023/02/17 06:10:22;;;;;;;3.67;1.80;;;;;;;17.33;52.04;101642.22;6226143;22;20007;-86
2023/02/17 06:12:47;;;;;;;3.25;1.45;;;;;;;17.34;52.06;101644.84;6250768;22;20451;-86
2023/02/17 06:15:13;;;;;;;6.95;1.70;;;;;;;17.34;51.87;101643.97;6202049;22;20324;-85
2023/02/17 06:17:38;;;;;;;3.97;1.77;;;;;;;17.34;52.17;101642.25;6202621;22;20011;-82
2023/02/17 06:20:04;;;;;;;4.22;1.55;;;;;;;17.34;52.37;101642.25;6202821;22;20008;-85
2023/02/17 06:22:30;;;;;;;4.10;1.70;;;;;;;17.35;52.08;101640.50;6227099;22;20077;-84
2023/02/17 06:24:55;;;;;;;3.63;1.63;;;;;;;17.34;52.32;101633.56;6252252;22;20010;-86
2023/02/17 06:27:21;;;;;;;4.85;1.77;;;;;;;17.34;52.31;101631.84;6226395;22;20015;-83
2023/02/17 06:29:46;;;;;;;3.97;1.40;;;;;;;17.36;52.37;101631.84;6226843;22;20483;-82
2023/02/17 06:32:11;;;;;;;5.90;1.50;;;;;;;17.35;52.61;101628.34;6226967;22;20082;-83
2023/02/17 06:34:37;;;;;;;6.30;1.80;;;;;;;17.35;52.53;101617.94;6226795;22;20007;-84
2023/02/17 06:37:02;;;;;;;3.38;1.50;;;;;;;17.35;52.43;101617.94;6226853;22;20340;-81
2023/02/17 06:39:28;;;;;;;4.20;1.70;;;;;;;17.36;52.46;101624.06;6226804;22;20388;-83
2023/02/17 06:41:53;;;;;;;2.72;1.63;;;;;;;17.36;52.42;101640.53;6227725;22;20007;-90
2023/02/17 06:44:19;;;;;;;3.92;1.60;;;;;;;17.36;52.64;101640.53;6230383;22;20031;-86
2023/02/17 06:46:45;;;;;;;3.40;1.70;;;;;;;17.37;52.56;101652.66;6227235;22;20027;-87
2023/02/17 06:49:11;;;;;;;5.43;1.80;;;;;;;17.37;52.51;101638.78;6226462;22;20014;-83
2023/02/17 06:51:37;;;;;;;3.88;1.90;;;;;;;17.43;52.64;101652.69;6252993;22;20075;-91
2023/02/17 06:54:02;;;;;;;7.45;2.35;;;;;;;17.43;52.67;101641.41;6230336;22;20007;-86
2023/02/17 06:56:28;;;;;;;6.68;2.20;;;;;;;17.42;52.64;101640.56;6209840;22;20008;-87
2023/02/17 06:58:53;;;;;;;6.07;2.58;;;;;;;17.41;52.80;101633.59;6252226;22;19996;-88
2023/02/17 07:01:24;;;;;;;7.20;2.53;;;;;;;17.41;52.86;101632.72;6225324;22;19995;-87
2023/02/17 07:03:51;;;;;;;6.30;2.50;;;;;;;17.42;52.72;101621.44;6277703;22;20059;-89
2023/02/17 07:06:16;;;;;;;6.13;2.65;;;;;;;17.40;52.91;101623.19;6264449;22;20396;-88
2023/02/17 07:08:41;;;;;;;4.43;2.40;;;;;;;17.40;52.86;101620.59;6232076;22;20094;-89
2023/02/17 07:11:09;;;;;;;5.07;2.47;;;;;;;17.40;53.17;101615.41;6230734;22;20355;-90
2023/02/17 07:13:35;;;;;;;6.68;2.65;;;;;;;17.41;52.80;101624.94;6254366;22;20034;-88
2023/02/17 07:16:01;;;;;;;8.00;2.47;;;;;;;17.40;52.74;101621.47;6203700;22;20004;-87
2023/02/17 07:18:26;;;;;;;5.93;2.40;;;;;;;17.41;52.65;101630.13;6227885;22;20416;-89
2023/02/17 07:20:52;;;;;;;6.25;2.22;;;;;;;17.42;52.92;101618.84;6228199;22;20011;-87
2023/02/17 07:23:17;;;;;;;3.67;1.75;;;;;;;17.41;52.85;101615.38;6228169;22;20008;-88
2023/02/17 07:25:43;;;;;;;4.82;2.20;;;;;;;17.43;52.73;101618.00;6203024;22;20003;-85
2023/02/17 07:28:08;;;;;;;5.45;2.03;;;;;;;17.42;52.71;101611.94;6202803;22;20340;-87
2023/02/17 07:30:38;;;;;;;4.68;2.80;;;;;;;17.42;52.73;101614.53;6228385;22;20003;-87
2023/02/17 07:33:04;;;;;;;4.13;2.13;;;;;;;17.43;52.88;101581.56;6228619;22;20436;-87
2023/02/17 07:35:30;;;;;;;4.90;2.30;;;;;;;17.42;52.87;101604.13;6253366;22;20007;-87
2023/02/17 07:37:59;;;;;;;4.90;2.00;;;;;;;17.43;52.84;101625.81;6252791;22;20034;-87
2023/02/17 07:40:26;;;;;;;4.90;2.17;;;;;;;17.44;52.87;101628.41;6227981;22;20035;-88
2023/02/17 07:42:52;;;;;;;4.07;2.08;;;;;;;17.43;52.88;101618.00;6229106;22;20008;-88
2023/02/17 07:45:17;;;;;;;4.32;1.90;;;;;;;17.45;52.96;101621.47;6227480;22;20286;-87
2023/02/17 07:47:43;;;;;;;3.72;2.00;;;;;;;17.45;52.83;101634.47;6228251;22;20018;-87
2023/02/17 07:50:09;;;;;;;4.20;2.13;;;;;;;17.45;52.75;101652.69;6252782;22;20069;-85
2023/02/17 07:52:34;;;;;;;3.92;1.77;;;;;;;17.44;52.61;101643.13;6253264;22;20003;-85
2023/02/17 07:55:00;;;;;;;5.75;2.00;;;;;;;17.46;52.67;101651.81;6227177;22;20007;-87
2023/02/17 07:57:25;;;;;;;3.85;2.08;;;;;;;17.46;52.77;101676.13;6227492;22;20008;-87
2023/02/17 07:59:51;;;;;;;4.95;2.20;;;;;;;17.46;52.77;101676.13;6252363;22;20026;-87
2023/02/17 08:02:17;;;;;;;3.60;1.90;;;;;;;17.46;52.67;101662.22;6227568;22;20015;-85
2023/02/17 08:04:42;;;;;;;4.57;2.30;;;;;;;17.45;52.70;101663.97;6228113;22;20014;-89
2023/02/17 08:07:28;;;;;;;;;;;;;;;;;;;;;
2023/02/17 08:15:22;;;;;;;;;;;;;;;17.47;52.79;101650.97;6257821;22;20080;-88
2023/02/17 08:17:47;;;;;;;3.05;1.90;;;;;;;17.48;52.84;101679.63;6227089;22;19911;-87
2023/02/17 08:20:14;;;;;;;4.28;1.98;;;;;;;17.48;52.74;101686.53;6252743;22;20008;-88
2023/02/17 08:22:40;;;;;;;3.78;2.25;;;;;;;17.48;52.75;101684.81;6251714;22;20007;-88
2023/02/17 08:25:05;;;;;;;4.25;2.00;;;;;;;17.49;53.04;101688.28;6252152;22;20004;-85
2023/02/17 08:27:31;;;;;;;4.28;1.98;;;;;;;17.49;52.86;101685.69;6251890;22;20018;-86
2023/02/17 08:29:56;;;;;;;4.63;1.73;;;;;;;17.50;52.82;101692.59;6226797;22;20007;-88
2023/02/17 08:32:22;;;;;;;6.20;2.30;;;;;;;17.50;52.88;101674.41;6227469;22;20424;-85
2023/02/17 08:34:47;;;;;;;5.38;2.17;;;;;;;17.51;52.85;101681.34;6252030;22;20003;-87
2023/02/17 08:37:12;;;;;;;5.20;1.90;;;;;;;17.53;53.01;101676.13;6200821;22;20018;-87
2023/02/17 08:39:38;;;;;;;4.75;1.95;;;;;;;17.52;52.80;101651.84;6226943;22;20335;-84
2023/02/17 08:42:04;;;;;;;4.28;2.03;;;;;;;17.54;52.73;101655.31;6226774;22;20007;-87
2023/02/17 08:44:32;;;;;;;5.38;1.90;;;;;;;17.56;53.03;101660.56;6251462;22;20018;-85
2023/02/17 08:46:57;;;;;;;3.92;1.95;;;;;;;17.58;52.43;101672.69;6251279;22;20043;-86
2023/02/17 08:49:25;;;;;;;3.55;1.83;;;;;;;17.59;52.65;101661.41;6226823;22;20370;-85
2023/02/17 08:51:52;;;;;;;4.95;1.90;;;;;;;17.61;52.63;101669.22;6251543;22;20010;-88
2023/02/17 08:54:17;;;;;;;4.57;1.90;;;;;;;17.61;52.61;101677.91;6278986;22;20012;-85
2023/02/17 08:56:43;;;;;;;3.35;1.80;;;;;;;17.63;52.63;101677.91;6226255;22;20059;-87
2023/02/17 08:59:10;;;;;;;2.80;1.65;;;;;;;17.62;52.64;101677.06;6251968;22;19995;-85
2023/02/17 09:01:37;;;;;;;3.45;1.92;;;;;;;17.63;52.66;101670.09;6251649;22;20031;-87
2023/02/17 09:04:04;;;;;;;4.88;1.80;;;;;;;17.64;52.68;101670.13;6226798;22;20007;-88
2023/02/17 09:06:38;;;;;;;3.15;1.77;;;;;;;17.63;52.69;101652.75;6251844;22;20008;-87
2023/02/17 09:09:05;;;;;;;4.45;1.88;;;;;;;17.66;52.48;101671.00;6251340;22;20391;-87
2023/02/17 09:11:31;;;;;;;3.45;2.00;;;;;;;17.69;52.62;101657.13;6278412;22;20014;-85
2023/02/17 09:13:57;;;;;;;3.63;1.67;;;;;;;17.69;52.48;101659.72;6251478;22;20011;-84
2023/02/17 09:16:23;;;;;;;3.08;1.67;;;;;;;17.71;52.30;101660.59;6226370;22;20102;-85
2023/02/17 09:18:50;;;;;;;4.03;2.00;;;;;;;17.72;52.58;101664.91;6226184;22;20011;-86
2023/02/17 09:21:16;;;;;;;3.53;1.85;;;;;;;17.71;52.46;101652.78;6226335;22;20466;-82
2023/02/17 09:23:42;;;;;;;5.80;1.67;;;;;;;17.70;52.48;101653.63;6225979;22;20012;-85
2023/02/17 09:26:10;;;;;;;3.03;1.40;;;;;;;17.71;52.72;101657.13;6250883;22;20010;-85
2023/02/17 09:28:37;;;;;;;3.10;1.60;;;;;;;17.68;52.59;101635.44;6250946;22;20374;-83
2023/02/17 09:31:16;;;;;;;3.20;1.48;;;;;;;17.70;52.60;101645.81;6252379;22;19995;-86
2023/02/17 09:33:41;;;;;;;2.92;1.48;;;;;;;17.69;52.54;101636.28;6253017;22;20027;-84
2023/02/17 09:36:09;;;;;;;3.22;1.67;;;;;;;17.69;52.41;101654.53;6255315;22;20428;-85
2023/02/17 09:38:38;;;;;;;3.58;1.70;;;;;;;17.69;52.49;101668.41;6271415;22;20336;-87
2023/02/17 09:41:54;;;;;;;3.22;1.67;;;;;;;17.68;52.48;101664.06;6272318;22;20003;-85
2023/02/17 09:44:21;;;;;;;2.90;1.60;;;;;;;17.69;52.48;101681.41;6232693;22;20003;-84
2023/02/17 09:46:58;;;;;;;2.63;1.45;;;;;;;17.69;52.51;101681.41;6280683;22;20488;-85
2023/02/17 09:49:29;;;;;;;3.20;1.60;;;;;;;17.68;52.52;101671.88;6254152;22;20332;-85
2023/02/17 09:52:30;;;;;;;3.85;1.80;;;;;;;17.69;52.39;101686.63;6254066;22;20008;-86
2023/02/17 09:54:58;;;;;;;2.92;1.60;;;;;;;17.68;52.46;101699.63;6248854;22;20018;-85
2023/02/17 09:57:28;;;;;;;3.22;1.73;;;;;;;17.67;52.47;101696.16;6253022;22;20006;-86
2023/02/17 10:00:00;;;;;;;3.80;1.60;;;;;;;17.70;52.39;101677.06;6252666;22;20416;-83
2023/02/17 10:02:34;;;;;;;3.15;1.75;;;;;;;17.72;52.30;101685.75;6253547;22;20084;-86
2023/02/17 10:05:06;;;;;;;2.90;1.60;;;;;;;17.72;52.28;101703.09;6253272;22;20004;-86
2023/02/17 10:07:41;;;;;;;2.58;1.30;;;;;;;17.70;52.30;101716.09;6252838;22;20332;-86
2023/02/17 10:10:24;;;;;;;2.88;1.63;;;;;;;17.70;52.37;101729.13;6253111;22;20053;-85
2023/02/17 10:12:55;;;;;;;3.50;2.08;;;;;;;17.69;52.17;101720.47;6252924;22;19999;-85
2023/02/17 10:15:25;;;;;;;4.03;1.83;;;;;;;17.69;52.49;101723.06;6252888;22;20467;-85
2023/02/17 10:18:10;;;;;;;3.15;1.55;;;;;;;17.71;52.53;101723.06;6252604;22;19999;-84
2023/02/17 10:20:43;;;;;;;3.58;1.60;;;;;;;17.69;52.45;101717.84;6252742;22;19999;-85
2023/02/17 10:23:21;;;;;;;4.07;1.58;;;;;;;17.72;52.30;101723.94;6252753;22;20428;-86
2023/02/17 10:26:19;;;;;;;3.30;1.55;;;;;;;17.71;52.19;101722.22;6252736;22;20090;-85
2023/02/17 10:29:24;;;;;;;4.03;1.80;;;;;;;17.70;52.22;101718.72;6252623;22;20711;-85
2023/02/17 10:32:16;;;;;;;3.35;1.50;;;;;;;17.71;52.25;101741.28;6252118;22;20007;-85
2023/02/17 10:35:04;;;;;;;2.78;1.35;;;;;;;17.73;52.29;101754.31;6253064;22;20012;-85
2023/02/17 10:37:32;;;;;;;3.70;1.67;;;;;;;17.72;52.17;101757.78;6279851;22;20011;-86
2023/02/17 10:40:00;;;;;;;4.13;1.60;;;;;;;17.72;52.40;101744.75;6252611;22;20069;-86
2023/02/17 10:42:37;;;;;;;3.78;1.75;;;;;;;17.72;52.36;101743.03;6227497;22;20027;-85
2023/02/17 10:45:38;;;;;;;3.55;1.70;;;;;;;17.72;52.18;101736.94;6252888;22;20010;-85
2023/02/17 10:48:12;;;;;;;3.75;1.70;;;;;;;17.72;52.15;101742.16;6252450;22;20016;-83
2023/02/17 10:50:41;;;;;;;4.30;1.75;;;;;;;17.73;52.36;101743.91;6252448;22;20104;-85
2023/02/17 10:53:24;;;;;;;4.35;1.80;;;;;;;17.74;52.16;101756.06;6252511;22;20328;-87
2023/02/17 10:55:49;;;;;;;3.90;1.73;;;;;;;17.74;51.96;101764.72;6252366;22;20400;-86
2023/02/17 10:58:24;;;;;;;5.18;2.03;;;;;;;17.76;52.04;101776.03;6279244;22;20027;-87
2023/02/17 11:00:53;;;;;;;3.80;1.80;;;;;;;17.75;52.05;101781.25;6252171;22;20007;-87
2023/02/17 11:03:27;;;;;;;4.63;1.80;;;;;;;17.77;52.06;101784.69;6252246;22;20027;-86
2023/02/17 11:06:03;;;;;;;4.65;1.60;;;;;;;17.76;51.96;101817.66;6252697;22;20428;-86
2023/02/17 11:08:37;;;;;;;3.70;1.90;;;;;;;17.74;52.05;101803.78;6252453;22;20010;-86
2023/02/17 11:11:15;;;;;;;2.97;1.55;;;;;;;17.73;52.23;101830.69;6252712;22;20026;-88
2023/02/17 11:13:50;;;;;;;4.82;1.80;;;;;;;17.74;51.91;101815.94;6252304;22;20006;-87
2023/02/17 11:16:31;;;;;;;3.40;1.73;;;;;;;17.74;52.13;101810.72;6252266;22;20091;-88
2023/02/17 11:18:57;;;;;;;4.63;2.00;;;;;;;17.73;52.07;101811.59;6279860;22;20427;-86
2023/02/17 11:21:22;;;;;;;3.35;1.75;;;;;;;17.73;51.88;101817.66;6228116;22;20019;-91
2023/02/17 11:24:03;;;;;;;5.10;2.15;;;;;;;17.73;51.99;101817.66;6203142;22;20065;-89
2023/02/17 11:26:31;;;;;;;4.55;1.80;;;;;;;17.74;51.88;101826.34;6252535;22;20012;-87
2023/02/17 11:29:16;;;;;;;4.03;2.00;;;;;;;17.72;52.04;101825.47;6252525;22;20007;-88
2023/02/17 11:31:52;;;;;;;4.00;1.75;;;;;;;17.71;52.10;101822.00;6252852;22;19999;-87
2023/02/17 11:34:27;;;;;;;4.50;1.80;;;;;;;17.69;52.03;101821.97;6227728;22;20030;-88
2023/02/17 11:37:10;;;;;;;3.58;1.70;;;;;;;17.74;52.01;101834.16;6253549;22;20008;-89
2023/02/17 11:39:38;;;;;;;;;;;;;;;17.76;51.93;101829.81;6281202;22;20011;-89
2023/02/17 11:42:13;;;;;;;4.38;2.03;;;;;;;17.78;52.04;101835.91;6253285;22;19907;-89